createdAt,value
2023-01-20T00:04:38.419Z,-0.18
2023-01-20T00:09:41.094Z,-0.17
2023-01-20T00:14:43.770Z,-0.08
2023-01-20T00:19:47.822Z,-0.02
2023-01-20T00:24:50.524Z,-0.08
2023-01-20T00:29:53.185Z,-0.03
2023-01-20T00:34:57.272Z,-0.07
2023-01-20T00:39:59.980Z,-0.17
2023-01-20T00:45:02.701Z,-0.16
2023-01-20T00:50:07.423Z,-0.15
2023-01-20T00:55:10.981Z,-0.28
2023-01-20T01:00:14.477Z,-0.37
2023-01-20T01:05:18.502Z,-0.42
2023-01-20T01:10:21.204Z,-0.51
2023-01-20T01:15:23.885Z,-0.57
2023-01-20T01:20:29.185Z,-0.63
2023-01-20T01:25:31.930Z,-0.68
2023-01-20T01:30:35.003Z,-0.65
2023-01-20T01:35:39.100Z,-0.85
2023-01-20T01:40:41.807Z,-0.80
2023-01-20T01:45:44.514Z,-0.77
2023-01-20T01:50:52.635Z,-0.68
2023-01-20T01:55:57.663Z,-0.77
2023-01-20T02:01:01.149Z,-0.92
2023-01-20T02:06:05.605Z,-0.91
2023-01-20T02:11:08.337Z,-0.95
2023-01-20T02:16:16.274Z,-1.13
2023-01-20T02:22:05.348Z,-1.03
2023-01-20T02:27:11.279Z,-1.04
2023-01-20T02:32:21.933Z,-1.10
2023-01-20T02:37:26.765Z,-1.08
2023-01-20T02:42:34.198Z,-1.14
2023-01-20T02:47:42.989Z,-1.11
2023-01-20T02:52:56.731Z,-0.84
2023-01-20T02:58:02.539Z,-0.96
2023-01-20T03:03:09.264Z,-0.75
2023-01-20T03:08:13.876Z,-0.67
2023-01-20T03:13:17.994Z,-0.61
2023-01-20T03:18:22.198Z,-0.51
2023-01-20T03:23:25.666Z,-0.45
2023-01-20T03:28:28.357Z,-0.33
2023-01-20T03:33:32.474Z,-0.33
2023-01-20T03:38:35.192Z,-0.30
2023-01-20T03:43:45.347Z,-0.27
2023-01-20T03:48:53.716Z,-0.28
2023-01-20T03:53:59.735Z,-0.23
2023-01-20T03:59:03.960Z,-0.16
2023-01-20T04:04:12.576Z,-0.12
2023-01-20T04:09:18.619Z,-0.04
2023-01-20T04:14:21.323Z,-0.11
2023-01-20T04:19:26.604Z,-0.11
2023-01-20T04:24:31.673Z,-0.11
2023-01-20T04:29:34.445Z,-0.02
2023-01-20T04:34:38.521Z,0.04
2023-01-20T04:39:41.162Z,-0.08
2023-01-20T04:44:43.872Z,0.07
2023-01-20T04:49:47.873Z,0.01
2023-01-20T04:54:50.529Z,0.12
2023-01-20T04:59:53.205Z,0.05
2023-01-20T05:04:57.204Z,0.06
2023-01-20T05:09:59.849Z,0.05
2023-01-20T05:15:02.515Z,0.07
2023-01-20T05:20:07.464Z,0.12
2023-01-20T05:25:10.594Z,0.20
2023-01-20T05:30:13.772Z,0.17
2023-01-20T05:35:18.088Z,0.17
2023-01-20T05:40:21.044Z,0.16
2023-01-20T05:45:23.750Z,0.10
2023-01-20T05:50:28.865Z,0.15
2023-01-20T05:55:31.575Z,0.22
2023-01-20T06:00:34.621Z,0.20
2023-01-20T06:05:38.690Z,0.20
2023-01-20T06:10:41.344Z,0.17
2023-01-20T06:15:44.021Z,0.17
2023-01-20T06:20:48.249Z,0.17
2023-01-20T06:25:55.862Z,0.21
2023-01-20T06:31:03.011Z,0.21
2023-01-20T06:36:08.861Z,0.19
2023-01-20T06:41:11.427Z,0.14
2023-01-20T06:46:15.841Z,0.16
2023-01-20T06:51:21.270Z,0.19
2023-01-20T06:56:24.770Z,0.15
2023-01-20T07:01:30.805Z,0.16
2023-01-20T07:06:38.270Z,0.17
2023-01-20T07:11:41.156Z,0.24
2023-01-20T07:16:43.892Z,0.28
2023-01-20T07:21:47.977Z,0.27
2023-01-20T07:26:53.488Z,0.25
2023-01-20T07:31:56.337Z,0.27
2023-01-20T07:37:02.353Z,0.27
2023-01-20T07:42:05.238Z,0.26
2023-01-20T07:47:07.888Z,0.30
2023-01-20T07:52:11.905Z,1.87
2023-01-20T07:57:14.677Z,3.31
2023-01-20T08:02:17.406Z,3.53
2023-01-20T08:07:21.538Z,4.44
2023-01-20T08:12:24.288Z,4.65
2023-01-20T08:17:27.015Z,1.38
2023-01-20T08:22:31.069Z,1.00
2023-01-20T08:27:33.820Z,0.86
2023-01-20T08:32:36.528Z,0.70
2023-01-20T08:37:40.660Z,0.79
2023-01-20T08:42:43.389Z,0.91
2023-01-20T08:47:46.218Z,0.85
2023-01-20T08:52:50.328Z,0.80
2023-01-20T08:57:53.039Z,0.78
2023-01-20T09:02:55.745Z,0.86
2023-01-20T09:07:59.861Z,0.88
2023-01-20T09:13:02.755Z,0.80
2023-01-20T09:18:05.537Z,0.86
2023-01-20T09:23:09.646Z,0.88
2023-01-20T09:28:14.159Z,0.91
2023-01-20T09:33:16.876Z,0.94
2023-01-20T09:38:38.192Z,0.95
2023-01-20T09:43:56.827Z,1.00
2023-01-20T09:49:26.236Z,1.05
2023-01-20T09:54:35.126Z,1.13
2023-01-20T09:59:41.259Z,1.13
2023-01-20T10:04:47.188Z,1.15
2023-01-20T10:09:55.380Z,1.17
2023-01-20T10:15:03.235Z,1.15
2023-01-20T10:20:10.753Z,1.16
2023-01-20T10:25:17.420Z,1.22
2023-01-20T10:30:23.136Z,1.23
2023-01-20T10:35:27.295Z,1.25
2023-01-20T10:40:37.690Z,1.33
2023-01-20T10:45:52.979Z,1.35
2023-01-20T10:50:59.106Z,1.40
2023-01-20T10:56:17.766Z,1.42
2023-01-20T11:01:21.498Z,1.50
2023-01-20T11:06:26.667Z,1.59
2023-01-20T11:11:31.015Z,1.65
2023-01-20T11:16:33.897Z,1.64
2023-01-20T11:21:37.785Z,1.68
2023-01-20T11:26:41.886Z,1.65
2023-01-20T11:31:45.891Z,1.72
2023-01-20T11:36:49.185Z,1.78
2023-01-20T11:42:11.525Z,1.71
2023-01-20T11:47:23.157Z,1.71
2023-01-20T11:52:25.865Z,1.73
2023-01-20T11:57:30.261Z,1.74
2023-01-20T12:02:32.981Z,1.80
2023-01-20T12:07:38.591Z,1.84
2023-01-20T12:12:46.056Z,1.84
2023-01-20T12:17:54.201Z,1.78
2023-01-20T12:23:06.848Z,1.96
2023-01-20T12:28:18.169Z,1.99
2023-01-20T12:33:23.967Z,1.95
2023-01-20T12:38:27.256Z,1.92
2023-01-20T12:43:40.283Z,1.98
2023-01-20T12:48:52.131Z,1.96
2023-01-20T12:54:06.717Z,1.93
2023-01-20T12:59:20.416Z,1.99
2023-01-20T13:04:42.641Z,1.94
2023-01-20T13:09:59.201Z,1.98
2023-01-20T13:15:16.065Z,1.99
2023-01-20T13:20:23.502Z,1.96
2023-01-20T13:25:26.531Z,1.96
2023-01-20T13:30:44.875Z,1.94
2023-01-20T13:35:49.655Z,1.74
2023-01-20T13:40:54.565Z,1.95
2023-01-20T13:46:49.100Z,1.84
2023-01-20T13:51:51.929Z,1.84
2023-01-20T13:57:44.749Z,1.80
2023-01-20T14:02:50.792Z,1.91
2023-01-20T14:08:00.757Z,1.81
2023-01-20T14:13:10.179Z,1.84
2023-01-20T14:18:17.401Z,1.86
2023-01-20T14:23:29.432Z,1.80
2023-01-20T14:28:32.481Z,1.82
2023-01-20T14:33:44.568Z,1.80
2023-01-20T14:38:57.296Z,1.81
2023-01-20T14:44:02.129Z,1.72
2023-01-20T14:49:06.342Z,1.71
2023-01-20T14:54:31.656Z,1.72
2023-01-20T14:59:34.378Z,1.77
2023-01-20T15:04:38.711Z,1.63
2023-01-20T15:09:43.063Z,1.66
2023-01-20T15:14:59.982Z,1.62
2023-01-20T15:20:04.286Z,1.65
2023-01-20T15:25:13.501Z,1.51
2023-01-20T15:30:21.185Z,1.45
2023-01-20T15:35:26.794Z,1.44
2023-01-20T15:40:29.536Z,1.40
2023-01-20T15:45:32.252Z,1.44
2023-01-20T15:50:36.309Z,1.36
2023-01-20T15:55:42.542Z,1.24
2023-01-20T16:00:45.251Z,1.25
2023-01-20T16:05:51.745Z,1.16
2023-01-20T16:10:54.446Z,1.16
2023-01-20T16:15:57.392Z,1.02
2023-01-20T16:21:02.483Z,0.96
2023-01-20T16:26:15.647Z,0.92
2023-01-20T16:31:18.877Z,0.85
2023-01-20T16:36:24.467Z,0.80
2023-01-20T16:41:28.645Z,0.68
2023-01-20T16:46:32.723Z,0.62
2023-01-20T16:51:36.779Z,0.59
2023-01-20T16:56:40.602Z,0.68
2023-01-20T17:01:43.593Z,0.66
2023-01-20T17:06:47.649Z,0.60
2023-01-20T17:11:50.372Z,0.48
2023-01-20T17:16:54.652Z,0.48
2023-01-20T17:21:58.772Z,0.52
2023-01-20T17:27:01.488Z,0.37
2023-01-20T17:32:04.418Z,0.44
2023-01-20T17:37:08.470Z,0.27
2023-01-20T17:42:11.178Z,0.28
2023-01-20T17:47:14.184Z,0.41
2023-01-20T17:52:20.074Z,0.31
2023-01-20T17:57:22.598Z,0.29
2023-01-20T18:02:25.454Z,-0.01
2023-01-20T18:07:29.622Z,0.08
2023-01-20T18:12:32.369Z,0.02
2023-01-20T18:17:35.172Z,0.07
2023-01-20T18:22:39.225Z,0.13
2023-01-20T18:27:41.919Z,0.10
2023-01-20T18:32:44.629Z,-0.06
2023-01-20T18:37:48.635Z,0.13
2023-01-20T18:42:51.304Z,0.02
2023-01-20T18:47:53.958Z,-0.12
2023-01-20T18:52:58.278Z,-0.11
2023-01-20T18:58:00.959Z,-0.13
2023-01-20T19:03:03.826Z,-0.18
2023-01-20T19:08:08.046Z,-0.25
2023-01-20T19:13:10.729Z,-0.24
2023-01-20T19:18:13.790Z,-0.25
2023-01-20T19:23:18.237Z,-0.55
2023-01-20T19:28:20.917Z,-0.52
2023-01-20T19:33:23.608Z,-0.68
2023-01-20T19:38:28.288Z,-0.62
2023-01-20T19:43:31.011Z,-0.61
2023-01-20T19:48:33.831Z,-0.81
2023-01-20T19:53:38.342Z,-0.77
2023-01-20T19:58:41.721Z,-0.72
2023-01-20T20:03:44.710Z,-0.82
2023-01-20T20:08:49.024Z,-0.82
2023-01-20T20:13:54.645Z,-0.95
2023-01-20T20:18:57.872Z,-0.72
2023-01-20T20:24:02.398Z,-0.76
2023-01-20T20:29:06.363Z,-0.74
2023-01-20T20:34:10.553Z,-0.71
2023-01-20T20:39:16.685Z,-0.83
2023-01-20T20:44:19.521Z,-0.79
2023-01-20T20:49:22.226Z,-0.73
2023-01-20T20:54:26.353Z,-0.69
2023-01-20T20:59:29.021Z,-0.79
2023-01-20T21:04:31.983Z,-0.81
2023-01-20T21:09:36.456Z,-0.73
2023-01-20T21:14:39.232Z,-0.88
2023-01-20T21:19:41.909Z,-1.00
2023-01-20T21:24:45.954Z,-1.00
2023-01-20T21:29:48.652Z,-0.95
2023-01-20T21:34:51.388Z,-1.04
2023-01-20T21:39:55.481Z,-1.01
2023-01-20T21:44:58.546Z,-1.00
2023-01-20T21:50:18.844Z,-1.23
2023-01-20T21:55:24.152Z,-1.24
2023-01-20T22:00:29.579Z,-1.26
2023-01-20T22:05:32.282Z,-1.19
2023-01-20T22:10:36.340Z,-1.33
2023-01-20T22:15:40.395Z,-1.39
2023-01-20T22:20:43.233Z,-1.39
2023-01-20T22:25:47.265Z,-1.52
2023-01-20T22:30:50.064Z,-1.64
2023-01-20T22:35:55.186Z,-1.59
2023-01-20T22:41:05.142Z,-2.12
2023-01-20T22:46:07.936Z,-2.05
2023-01-20T22:51:12.128Z,-1.83
2023-01-20T22:56:18.008Z,-1.97
2023-01-20T23:01:22.647Z,-1.97
2023-01-20T23:06:26.463Z,-1.88
2023-01-20T23:11:30.990Z,-1.81
2023-01-20T23:16:33.777Z,-1.87
2023-01-20T23:21:36.888Z,-1.95
2023-01-20T23:26:40.905Z,-1.85
2023-01-20T23:31:43.620Z,-1.85
2023-01-20T23:36:46.338Z,-2.07
2023-01-20T23:41:50.394Z,-2.37
2023-01-20T23:46:53.056Z,-2.09
2023-01-20T23:51:55.727Z,-2.08
2023-01-20T23:56:59.735Z,-2.12
